Terminal Aerodrome Forecast
Issued by NWS Omaha/Valley, NE

Home | Current Version | Previous Version | Text Only | Print | Product List | Glossary On
Versions: 1 2 3 4 5 6 7 8 9 10 11 12 13 14 15 16 17 18 19 20 21 22 23 24 25 26 27 28 29 30 31 32 33 34 35 36 37 38 39 40 41 42
000
FTUS43 KOAX 230124 AAB
TAFLNK
TAF AMD
KLNK 230124Z 2301/2324 18012KT P6SM OVC015
      TEMPO 2303/2307 5SM BR OVC010
     FM230700 18007KT 5SM BR OVC005
     FM231300 32009KT 4SM -SHRA BR SCT007 OVC015
     FM231600 34015G26KT P6SM SCT015 OVC035 PROB30 2316/2320 5SM
      -SHRA BKN025=

USA.gov is the U.S. government's official web portal to all federal, state and local government web resources and services.